Time;durP1;ratioP1;P1;durP2;ratioP2;P2;SDS_P1;SDS_P2;PMS_P1;PMS_P2;Temp;Humidity;BMP_temperature;BMP_pressure;BME280_temperature;BME280_humidity;BME280_pressure;Samples;Min_cycle;Max_cycle;Signal;HPM_P1;HPM_P2
2021/06/19 00:01:55;;;;;;;12.50;10.88;;;;;;;21.75;64.68;101637.19;6287428;28;20251;-75
2021/06/19 00:05:00;;;;;;;15.90;11.60;;;;;;;21.70;64.45;101645.47;6286201;28;20490;-74
2021/06/19 00:08:05;;;;;;;13.15;11.77;;;;;;;21.70;64.52;101649.09;6285922;28;20414;-74
2021/06/19 00:11:11;;;;;;;18.38;12.77;;;;;;;21.61;64.96;101649.91;6286742;28;20208;-75
2021/06/19 00:14:15;;;;;;;14.00;12.32;;;;;;;21.39;66.88;101657.56;6286337;28;20427;-74
2021/06/19 00:17:21;;;;;;;15.60;11.20;;;;;;;21.32;66.72;101645.84;6308021;28;20281;-74
2021/06/19 00:20:27;;;;;;;16.50;11.95;;;;;;;21.34;67.11;101654.75;6312161;28;20180;-74
2021/06/19 00:23:31;;;;;;;13.07;11.85;;;;;;;20.97;68.74;101654.75;6311256;28;20480;-74
2021/06/19 00:26:36;;;;;;;13.23;11.85;;;;;;;20.96;68.75;101653.91;6312117;28;20262;-75
2021/06/19 00:29:40;;;;;;;13.63;11.70;;;;;;;20.85;68.90;101646.59;6312157;28;20211;-74
2021/06/19 00:32:46;;;;;;;15.40;11.93;;;;;;;20.80;69.14;101654.88;6312013;28;20222;-74
2021/06/19 00:35:50;;;;;;;13.70;12.23;;;;;;;20.86;68.90;101664.09;6311006;28;20467;-74
2021/06/19 00:38:54;;;;;;;13.48;12.05;;;;;;;20.69;69.81;101655.94;6311880;28;20190;-74
2021/06/19 00:41:59;;;;;;;16.10;11.45;;;;;;;20.74;69.47;101655.97;6312247;28;20187;-74
2021/06/19 00:45:03;;;;;;;13.40;11.95;;;;;;;20.73;69.99;101654.28;6310562;28;20241;-74
2021/06/19 00:48:13;;;;;;;17.35;11.00;;;;;;;20.82;68.92;101651.88;6310880;28;20470;-74
2021/06/19 00:51:18;;;;;;;14.40;9.90;;;;;;;20.38;69.76;101656.75;6310692;28;20217;-75
2021/06/19 00:54:22;;;;;;;9.90;9.02;;;;;;;20.32;69.60;101652.22;6312108;28;20222;-75
2021/06/19 00:57:26;;;;;;;9.00;8.23;;;;;;;20.42;68.59;101657.88;6310724;28;20245;-74
2021/06/19 01:00:31;;;;;;;7.13;6.53;;;;;;;20.32;67.60;101657.78;6310440;28;20241;-74
2021/06/19 01:03:37;;;;;;;10.75;6.90;;;;;;;20.26;67.88;101667.97;6311679;28;20190;-74
2021/06/19 01:06:41;;;;;;;6.50;5.95;;;;;;;20.10;67.59;101659.72;6293295;28;20248;-75
2021/06/19 01:09:45;;;;;;;5.60;5.20;;;;;;;20.11;66.83;101655.88;6311542;28;20223;-74
2021/06/19 01:12:50;;;;;;;6.47;4.97;;;;;;;20.00;66.83;101663.22;6311806;28;20230;-74
2021/06/19 01:15:54;;;;;;;4.18;4.00;;;;;;;19.84;66.63;101664.97;6310244;28;20425;-74
2021/06/19 01:19:17;;;;;;;4.38;4.10;;;;;;;19.73;65.49;101671.47;6312879;28;20184;-75
2021/06/19 01:22:21;;;;;;;3.90;3.70;;;;;;;19.65;65.38;101680.22;6314801;28;20188;-75
2021/06/19 01:25:32;;;;;;;4.72;3.65;;;;;;;19.62;65.54;101677.97;6314995;28;20474;-75
2021/06/19 01:28:36;;;;;;;3.92;3.72;;;;;;;19.39;66.14;101685.69;6314803;28;20192;-75
2021/06/19 01:31:40;;;;;;;3.60;3.40;;;;;;;18.93;66.91;101686.84;6314651;28;20238;-74
2021/06/19 01:34:45;;;;;;;10.52;3.17;;;;;;;18.90;66.93;101687.38;6315517;28;20183;-75
2021/06/19 01:37:50;;;;;;;3.80;3.50;;;;;;;18.88;67.05;101690.38;6315626;28;20183;-74
2021/06/19 01:40:56;;;;;;;3.28;3.03;;;;;;;18.86;66.96;101691.72;6315971;28;20187;-74
2021/06/19 01:44:03;;;;;;;3.53;3.00;;;;;;;18.77;66.91;101670.03;6314502;28;20251;-75
2021/06/19 01:47:07;;;;;;;6.47;2.70;;;;;;;18.54;67.21;101681.22;6314236;28;20245;-74
2021/06/19 01:50:15;;;;;;;2.80;2.70;;;;;;;18.70;66.89;101699.75;6315173;28;20218;-75
2021/06/19 01:53:20;;;;;;;2.85;2.75;;;;;;;18.53;67.09;101692.53;6315437;28;20184;-75
2021/06/19 01:56:26;;;;;;;2.58;2.47;;;;;;;18.45;67.33;101688.22;6315369;28;20190;-75
2021/06/19 01:59:30;;;;;;;2.83;2.70;;;;;;;18.30;67.15;101687.09;6315079;28;20215;-75
2021/06/19 02:02:34;;;;;;;3.30;2.42;;;;;;;18.26;67.56;101681.22;6315102;28;20194;-75
2021/06/19 02:05:38;;;;;;;2.38;2.17;;;;;;;18.39;66.80;101683.69;6315036;28;20269;-75
2021/06/19 02:08:55;;;;;;;2.38;2.13;;;;;;;18.49;66.05;101691.38;6313821;28;20474;-76
2021/06/19 02:12:03;;;;;;;2.25;2.00;;;;;;;18.64;65.33;101684.16;6314299;28;20207;-75
2021/06/19 02:15:08;;;;;;;1.90;1.90;;;;;;;18.49;65.17;101692.19;6314709;28;20271;-75
2021/06/19 02:18:14;;;;;;;3.13;2.05;;;;;;;18.44;65.08;101696.75;6315227;28;20184;-75
2021/06/19 02:21:18;;;;;;;1.60;1.60;;;;;;;18.46;64.94;101692.66;6314946;28;20187;-75
2021/06/19 02:24:22;;;;;;;1.90;1.90;;;;;;;18.51;64.68;101692.81;6314618;28;20254;-75
2021/06/19 02:27:28;;;;;;;1.60;1.50;;;;;;;18.32;64.39;101701.50;6314736;28;20183;-75
2021/06/19 02:30:34;;;;;;;3.10;1.60;;;;;;;18.38;64.60;101701.38;6313150;28;20542;-75
2021/06/19 02:33:38;;;;;;;1.70;1.60;;;;;;;18.30;64.78;101707.28;6314528;28;20214;-75
2021/06/19 02:36:42;;;;;;;4.40;1.80;;;;;;;18.18;65.20;101720.28;6313524;28;20509;-75
2021/06/19 02:39:47;;;;;;;2.53;1.60;;;;;;;18.20;65.59;101709.00;6314669;28;20187;-75
2021/06/19 02:42:53;;;;;;;2.80;1.65;;;;;;;18.17;65.09;101718.63;6314403;28;20255;-75
2021/06/19 02:45:59;;;;;;;1.73;1.50;;;;;;;18.04;65.19;101727.19;6313626;28;20238;-75
2021/06/19 02:49:03;;;;;;;1.60;1.60;;;;;;;17.89;65.48;101724.13;6313082;28;20184;-74
2021/06/19 02:52:09;;;;;;;1.38;1.38;;;;;;;17.94;65.25;101715.94;6314310;28;20246;-75
2021/06/19 02:55:16;;;;;;;1.50;1.50;;;;;;;17.97;65.26;101715.47;6312984;28;20410;-75
2021/06/19 02:58:22;;;;;;;1.60;1.48;;;;;;;17.88;65.16;101703.09;6312774;28;20490;-75
2021/06/19 03:01:26;;;;;;;1.50;1.40;;;;;;;17.88;65.43;101722.44;6313705;28;20219;-75
2021/06/19 03:04:34;;;;;;;4.70;1.80;;;;;;;17.74;66.00;101718.28;6313362;28;20188;-75
2021/06/19 03:07:39;;;;;;;1.50;1.50;;;;;;;17.93;65.42;101717.00;6313671;28;20188;-74
2021/06/19 03:10:43;;;;;;;1.58;1.50;;;;;;;17.94;65.19;101726.97;6313411;28;20246;-75
2021/06/19 03:13:49;;;;;;;1.40;1.40;;;;;;;17.80;65.59;101731.09;6313858;28;20250;-75
2021/06/19 03:16:55;;;;;;;1.65;1.60;;;;;;;17.66;66.40;101751.75;6313055;28;20531;-75
2021/06/19 03:19:59;;;;;;;1.63;1.63;;;;;;;17.66;66.24;101730.53;6312648;28;20187;-75
2021/06/19 03:23:05;;;;;;;6.57;1.90;;;;;;;17.48;66.88;101728.72;6312938;28;20188;-74
2021/06/19 03:26:09;;;;;;;3.47;1.67;;;;;;;17.52;66.78;101735.47;6312933;28;20216;-75
2021/06/19 03:29:16;;;;;;;1.50;1.45;;;;;;;17.40;67.40;101728.22;6313348;28;20190;-75
2021/06/19 03:32:20;;;;;;;1.83;1.63;;;;;;;17.63;67.33;101713.59;6313389;28;20211;-75
2021/06/19 03:35:25;;;;;;;1.60;1.60;;;;;;;17.93;66.13;101725.28;6313285;28;20256;-75
2021/06/19 03:38:30;;;;;;;1.60;1.60;;;;;;;17.86;65.99;101724.59;6311791;28;20379;-75
2021/06/19 03:41:34;;;;;;;1.30;1.30;;;;;;;17.84;66.05;101726.78;6311457;28;20376;-75
2021/06/19 03:44:39;;;;;;;1.50;1.40;;;;;;;17.78;66.39;101727.72;6313325;28;20250;-75
2021/06/19 03:47:45;;;;;;;5.30;1.40;;;;;;;17.75;66.68;101728.22;6313113;28;20263;-75
2021/06/19 03:50:49;;;;;;;1.70;1.60;;;;;;;17.80;66.36;101742.13;6313025;28;20187;-75
2021/06/19 03:53:53;;;;;;;1.35;1.35;;;;;;;17.74;66.26;101734.84;6312583;28;20216;-75
2021/06/19 03:56:57;;;;;;;3.30;1.48;;;;;;;17.80;66.47;101725.56;6311675;28;20184;-76
2021/06/19 04:00:05;;;;;;;1.30;1.30;;;;;;;17.86;66.26;101733.72;6311960;28;20222;-75
2021/06/19 04:03:20;;;;;;;1.30;1.30;;;;;;;17.90;65.98;101728.53;6312587;28;20183;-75
2021/06/19 04:06:24;;;;;;;1.40;1.40;;;;;;;17.84;66.33;101735.06;6312422;28;20198;-75
2021/06/19 04:09:28;;;;;;;1.38;1.38;;;;;;;17.84;66.12;101733.13;6312731;28;20183;-74
2021/06/19 04:12:32;;;;;;;2.50;1.48;;;;;;;17.91;65.98;101738.50;6312608;28;20274;-76
2021/06/19 04:15:38;;;;;;;2.40;1.40;;;;;;;17.96;65.73;101746.91;6312393;28;20289;-76
2021/06/19 04:18:42;;;;;;;3.50;1.42;;;;;;;18.08;65.12;101739.41;6311230;28;20184;-75
2021/06/19 04:21:47;;;;;;;1.25;1.25;;;;;;;18.13;65.35;101748.66;6311248;28;20187;-75
2021/06/19 04:24:51;;;;;;;1.40;1.30;;;;;;;17.99;65.92;101746.41;6312188;28;20255;-75
2021/06/19 04:27:57;;;;;;;1.50;1.40;;;;;;;18.01;65.47;101749.75;6312500;28;20189;-76
2021/06/19 04:31:09;;;;;;;1.30;1.30;;;;;;;17.96;65.37;101735.84;6311219;28;20474;-75
2021/06/19 04:34:13;;;;;;;1.40;1.40;;;;;;;18.06;65.57;101742.44;6312146;28;20271;-75
2021/06/19 04:37:17;;;;;;;1.40;1.40;;;;;;;18.24;65.40;101755.22;6311930;28;20184;-74
2021/06/19 04:40:27;;;;;;;1.20;1.20;;;;;;;18.34;64.51;101755.41;6311108;28;20183;-75
2021/06/19 04:43:41;;;;;;;4.43;1.30;;;;;;;18.53;63.79;101753.34;6311900;28;20219;-74
2021/06/19 04:46:47;;;;;;;1.30;1.30;;;;;;;18.42;63.93;101738.44;6311732;28;20183;-75
2021/06/19 04:49:51;;;;;;;1.13;1.13;;;;;;;18.38;63.41;101745.56;6310829;28;20190;-75
2021/06/19 04:52:56;;;;;;;1.40;1.40;;;;;;;18.38;63.36;101740.03;6312753;28;20238;-75
2021/06/19 04:56:02;;;;;;;1.20;1.20;;;;;;;18.45;63.11;101735.19;6316598;28;20230;-75
2021/06/19 04:59:06;;;;;;;1.10;1.10;;;;;;;18.37;63.37;101732.84;6315477;28;20183;-75
2021/06/19 05:02:12;;;;;;;1.27;1.27;;;;;;;18.42;63.27;101730.16;6317032;28;20233;-75
2021/06/19 05:05:16;;;;;;;2.78;1.17;;;;;;;18.48;63.16;101712.63;6316380;28;20190;-75
2021/06/19 05:08:21;;;;;;;1.65;1.17;;;;;;;18.23;63.41;101709.38;6315219;28;20183;-75
2021/06/19 05:11:25;;;;;;;1.83;1.20;;;;;;;18.37;63.65;101713.50;6316628;28;20184;-75
2021/06/19 05:14:29;;;;;;;1.10;1.10;;;;;;;18.61;62.71;101706.81;6315976;28;20270;-76
2021/06/19 05:17:34;;;;;;;1.27;1.17;;;;;;;18.47;62.48;101685.25;6316520;28;20262;-75
2021/06/19 05:20:38;;;;;;;1.33;1.30;;;;;;;19.07;61.40;101682.69;6315162;28;20428;-75
2021/06/19 05:23:42;;;;;;;1.45;1.42;;;;;;;19.51;61.01;101678.09;6316336;28;20225;-75
2021/06/19 05:26:47;;;;;;;1.77;1.50;;;;;;;19.85;59.24;101674.13;6316130;28;20219;-75
2021/06/19 05:29:52;;;;;;;1.70;1.60;;;;;;;19.92;59.32;101691.38;6297643;28;20199;-75
2021/06/19 05:32:57;;;;;;;1.73;1.50;;;;;;;19.98;58.36;101691.19;6315083;28;20249;-75
2021/06/19 05:36:01;;;;;;;1.80;1.70;;;;;;;20.14;58.11;101699.66;6316065;28;20184;-75
2021/06/19 05:39:07;;;;;;;4.10;2.10;;;;;;;20.25;58.16;101691.25;6315547;28;20255;-75
2021/06/19 05:42:12;;;;;;;1.90;1.90;;;;;;;20.28;58.21;101696.28;6314646;28;20430;-75
2021/06/19 05:45:16;;;;;;;1.90;1.80;;;;;;;19.97;59.40;101695.06;6314855;28;20183;-75
2021/06/19 05:48:22;;;;;;;1.73;1.70;;;;;;;19.97;59.04;101695.06;6314551;28;20190;-75
2021/06/19 05:51:26;;;;;;;1.77;1.67;;;;;;;20.27;58.88;101704.84;6315600;28;20214;-75
2021/06/19 05:54:35;;;;;;;1.65;1.65;;;;;;;20.11;58.68;101709.31;6314100;28;20536;-75
2021/06/19 05:57:40;;;;;;;1.60;1.60;;;;;;;20.13;59.90;101703.53;6314280;28;20505;-75
2021/06/19 06:00:44;;;;;;;1.50;1.50;;;;;;;19.89;59.17;101706.59;6314750;28;20190;-75
2021/06/19 06:03:50;;;;;;;1.52;1.52;;;;;;;20.02;59.36;101698.97;6314704;28;20188;-75
2021/06/19 06:06:54;;;;;;;1.67;1.63;;;;;;;19.87;59.28;101703.25;6313425;28;20188;-75
2021/06/19 06:09:58;;;;;;;1.73;1.73;;;;;;;19.96;59.55;101703.59;6315365;28;20190;-74
2021/06/19 06:13:05;;;;;;;1.90;1.90;;;;;;;20.13;58.93;101711.84;6314935;28;20211;-75
2021/06/19 06:16:09;;;;;;;2.15;1.92;;;;;;;20.03;59.20;101684.03;6314481;28;20234;-75
2021/06/19 06:19:18;;;;;;;2.05;1.98;;;;;;;19.95;60.11;101688.09;6315021;28;20183;-75
2021/06/19 06:22:22;;;;;;;2.03;2.03;;;;;;;20.08;59.05;101695.19;6314168;28;20191;-75
2021/06/19 06:25:27;;;;;;;2.17;2.17;;;;;;;20.20;59.77;101685.63;6315077;28;20258;-75
2021/06/19 06:28:31;;;;;;;2.63;2.42;;;;;;;20.27;59.22;101682.66;6313590;28;20483;-75
2021/06/19 06:31:35;;;;;;;2.72;2.63;;;;;;;19.86;59.69;101687.72;6314692;28;20229;-75
2021/06/19 06:34:41;;;;;;;3.30;3.00;;;;;;;19.69;60.23;101681.41;6314400;28;20218;-75
2021/06/19 06:37:46;;;;;;;3.15;2.95;;;;;;;19.68;61.12;101676.94;6313681;28;20275;-75
2021/06/19 06:40:50;;;;;;;3.40;3.20;;;;;;;19.90;61.34;101671.44;6314231;28;20184;-75
2021/06/19 06:43:54;;;;;;;6.25;3.67;;;;;;;19.99;61.05;101676.25;6313692;28;20194;-75
2021/06/19 06:46:58;;;;;;;3.65;3.55;;;;;;;20.10;61.17;101676.34;6313837;28;20187;-75
2021/06/19 06:50:06;;;;;;;3.30;3.05;;;;;;;20.11;61.34;101666.97;6312874;28;20426;-75
2021/06/19 06:53:10;;;;;;;3.38;3.08;;;;;;;20.19;60.46;101670.09;6313781;28;20190;-75
2021/06/19 06:56:14;;;;;;;2.90;2.70;;;;;;;20.23;59.59;101675.94;6314220;28;20215;-75
2021/06/19 06:59:19;;;;;;;3.67;3.35;;;;;;;20.34;60.41;101670.28;6313738;28;20183;-75
2021/06/19 07:02:22;;;;;;;3.20;3.10;;;;;;;20.45;60.20;101662.91;6313545;28;20255;-75
2021/06/19 07:05:28;;;;;;;3.20;3.10;;;;;;;20.65;60.15;101665.84;6313040;28;20237;-75
2021/06/19 07:08:32;;;;;;;2.97;2.97;;;;;;;20.81;58.70;101667.66;6312018;28;20411;-76
2021/06/19 07:11:36;;;;;;;3.30;3.20;;;;;;;20.76;59.55;101675.94;6312152;28;20475;-74
2021/06/19 07:14:41;;;;;;;3.13;2.92;;;;;;;20.78;58.77;101668.19;6312135;28;20221;-74
2021/06/19 07:17:46;;;;;;;3.40;2.95;;;;;;;20.71;58.74;101673.13;6312270;28;20509;-74
2021/06/19 07:20:52;;;;;;;3.75;2.88;;;;;;;20.78;59.33;101662.63;6312074;28;20247;-75
2021/06/19 07:23:57;;;;;;;3.15;3.00;;;;;;;20.91;59.68;101662.19;6312009;28;20470;-75
2021/06/19 07:27:01;;;;;;;3.13;3.03;;;;;;;21.06;59.06;101662.34;6313056;28;20250;-75
2021/06/19 07:30:06;;;;;;;3.08;3.08;;;;;;;20.89;58.20;101669.94;6312132;28;20187;-74
2021/06/19 07:33:15;;;;;;;4.00;3.20;;;;;;;20.87;59.38;101677.72;6312647;28;20222;-75
2021/06/19 07:36:20;;;;;;;3.60;3.30;;;;;;;21.01;59.27;101670.59;6312690;28;20183;-75
2021/06/19 07:39:24;;;;;;;3.30;2.90;;;;;;;21.16;58.82;101665.19;6312821;28;20215;-75
2021/06/19 07:42:30;;;;;;;3.08;2.97;;;;;;;21.25;58.64;101673.84;6311928;28;20279;-75
2021/06/19 07:45:34;;;;;;;3.00;2.90;;;;;;;21.29;58.11;101676.94;6312402;28;20238;-75
2021/06/19 07:48:39;;;;;;;3.60;3.35;;;;;;;21.34;59.19;101676.97;6312509;28;20190;-75
2021/06/19 07:51:45;;;;;;;3.65;3.35;;;;;;;21.50;59.67;101681.47;6311304;28;20474;-75
2021/06/19 07:54:53;;;;;;;3.90;3.60;;;;;;;21.51;58.12;101666.50;6311962;28;20270;-75
2021/06/19 07:57:59;;;;;;;3.30;3.20;;;;;;;21.56;59.17;101664.59;6312035;28;20221;-75
2021/06/19 08:01:03;;;;;;;4.07;3.80;;;;;;;21.64;59.01;101666.03;6312371;28;20183;-75
2021/06/19 08:04:10;;;;;;;3.65;3.45;;;;;;;21.76;58.80;101658.28;6312339;28;20259;-75
2021/06/19 08:07:15;;;;;;;4.03;3.80;;;;;;;21.86;58.69;101655.59;6312003;28;20262;-75
2021/06/19 08:10:19;;;;;;;3.70;3.50;;;;;;;21.75;58.84;101659.41;6311895;28;20251;-75
2021/06/19 08:13:24;;;;;;;3.72;3.50;;;;;;;21.76;58.14;101655.50;6312143;28;20215;-75
2021/06/19 08:16:28;;;;;;;3.70;3.40;;;;;;;21.80;58.10;101662.22;6311970;28;20243;-75
2021/06/19 08:19:33;;;;;;;6.82;3.33;;;;;;;21.93;58.02;101653.38;6311723;28;20222;-76
2021/06/19 08:22:43;;;;;;;3.72;3.55;;;;;;;22.01;60.17;101650.06;6310778;28;20233;-75
2021/06/19 08:25:47;;;;;;;3.75;3.50;;;;;;;22.16;58.60;101641.78;6311955;28;20206;-75
2021/06/19 08:28:51;;;;;;;3.80;3.60;;;;;;;22.10;58.08;101642.88;6311824;28;20256;-76
2021/06/19 08:31:55;;;;;;;4.10;3.90;;;;;;;22.04;57.94;101643.13;6310940;28;20262;-75
2021/06/19 08:35:00;;;;;;;4.30;3.90;;;;;;;22.10;57.78;101637.34;6311087;28;20211;-76
2021/06/19 08:38:06;;;;;;;3.83;3.55;;;;;;;22.20;58.81;101637.34;6310549;28;20190;-75
2021/06/19 08:41:11;;;;;;;4.57;4.28;;;;;;;22.19;59.88;101632.91;6311961;28;20203;-75
2021/06/19 08:44:21;;;;;;;4.15;3.85;;;;;;;22.21;59.32;101633.44;6310808;28;20215;-75
2021/06/19 08:47:40;;;;;;;22.50;5.30;;;;;;;22.08;58.13;101653.44;6311324;28;20184;-74
2021/06/19 08:50:45;;;;;;;3.80;3.60;;;;;;;22.08;57.70;101644.28;6310346;28;20215;-74
2021/06/19 08:53:51;;;;;;;4.22;4.00;;;;;;;22.13;59.21;101636.78;6311129;28;20183;-74
2021/06/19 08:56:55;;;;;;;3.80;3.60;;;;;;;22.23;58.80;101630.41;6311103;28;20239;-75
2021/06/19 08:59:59;;;;;;;4.28;3.97;;;;;;;22.36;58.32;101641.84;6311087;28;20190;-75
2021/06/19 09:03:05;;;;;;;3.95;3.75;;;;;;;22.26;58.11;101630.66;6310048;28;20191;-75
2021/06/19 09:06:24;;;;;;;4.50;4.20;;;;;;;22.32;58.58;101635.13;6310949;28;20188;-74
2021/06/19 09:09:33;;;;;;;4.25;4.10;;;;;;;22.33;58.86;101636.81;6310346;28;20222;-75
2021/06/19 09:12:37;;;;;;;4.97;4.57;;;;;;;22.45;58.41;101634.59;6310186;28;20544;-74
2021/06/19 09:15:44;;;;;;;5.22;4.75;;;;;;;22.54;58.12;101625.72;6310906;28;20298;-75
2021/06/19 09:18:49;;;;;;;4.57;4.38;;;;;;;22.48;58.47;101621.25;6311297;28;20264;-74
2021/06/19 09:22:10;;;;;;;4.88;4.57;;;;;;;22.58;57.91;101607.34;6311299;28;20194;-75
2021/06/19 09:25:16;;;;;;;5.20;4.70;;;;;;;22.66;58.41;101607.66;6310063;28;20483;-74
2021/06/19 09:28:20;;;;;;;5.43;4.63;;;;;;;22.74;58.54;101609.91;6311065;28;20183;-75
2021/06/19 09:31:32;;;;;;;5.97;5.10;;;;;;;22.70;58.71;101597.63;6309901;28;20219;-76
2021/06/19 09:34:40;;;;;;;5.05;4.80;;;;;;;22.82;58.67;101594.59;6306022;28;20452;-74
2021/06/19 09:37:46;;;;;;;6.15;5.05;;;;;;;22.74;58.79;101593.19;6311223;28;20262;-74
2021/06/19 09:40:51;;;;;;;6.82;5.18;;;;;;;22.85;60.01;101580.97;6312025;28;20243;-76
2021/06/19 09:43:58;;;;;;;5.57;4.90;;;;;;;22.91;58.11;101576.19;6315798;28;20184;-76
2021/06/19 09:47:03;;;;;;;5.53;5.18;;;;;;;22.96;58.33;101578.97;6314621;28;20554;-75
2021/06/19 09:50:09;;;;;;;5.30;4.82;;;;;;;23.00;58.43;101577.31;6314230;28;20467;-74
2021/06/19 09:53:15;;;;;;;8.20;5.22;;;;;;;23.00;58.63;101574.53;6313759;28;20250;-75
2021/06/19 09:56:22;;;;;;;5.38;4.95;;;;;;;23.03;58.35;101566.41;6315444;28;20239;-74
2021/06/19 09:59:28;;;;;;;5.18;4.68;;;;;;;23.15;58.24;101568.91;6315690;28;20247;-76
2021/06/19 10:02:32;;;;;;;5.13;4.72;;;;;;;23.17;58.10;101558.31;6315025;28;20184;-75
2021/06/19 10:05:39;;;;;;;5.53;5.13;;;;;;;23.23;57.77;101559.13;6315250;28;20188;-76
2021/06/19 10:08:45;;;;;;;5.57;5.28;;;;;;;23.26;58.19;101567.75;6314919;28;20219;-76
2021/06/19 10:11:53;;;;;;;5.55;5.10;;;;;;;23.36;58.33;101555.75;6313860;28;20380;-76
2021/06/19 10:15:00;;;;;;;5.40;5.20;;;;;;;23.39;57.79;101556.06;6313792;28;20269;-76
2021/06/19 10:18:05;;;;;;;5.72;5.32;;;;;;;23.36;57.83;101553.84;6314943;28;20191;-77
2021/06/19 10:21:11;;;;;;;6.43;5.82;;;;;;;23.43;57.94;101554.34;6314720;28;20183;-76
2021/06/19 10:24:15;;;;;;;5.90;5.50;;;;;;;23.48;57.84;101547.91;6315092;28;20195;-76
2021/06/19 10:27:23;;;;;;;6.30;5.68;;;;;;;23.55;58.00;101540.91;6314879;28;20226;-76
2021/06/19 10:30:27;;;;;;;8.00;5.55;;;;;;;23.66;57.65;101545.31;6314340;28;20183;-75
2021/06/19 10:33:46;;;;;;;6.47;5.82;;;;;;;23.77;57.91;101545.25;6314097;28;20207;-75
2021/06/19 10:36:52;;;;;;;6.20;5.70;;;;;;;23.89;59.69;101542.94;6312603;28;20290;-75
2021/06/19 10:39:56;;;;;;;7.40;6.70;;;;;;;23.98;58.57;101549.59;6313527;28;20397;-75
2021/06/19 10:43:21;;;;;;;7.28;6.53;;;;;;;24.10;57.90;101539.78;6314262;28;20190;-75
2021/06/19 10:46:31;;;;;;;8.50;7.70;;;;;;;24.19;57.11;101540.00;6314531;28;20188;-75
2021/06/19 10:49:37;;;;;;;7.93;7.28;;;;;;;24.29;57.94;101542.72;6313899;28;20191;-75
2021/06/19 10:52:41;;;;;;;7.82;7.05;;;;;;;24.41;57.71;101531.16;6312929;28;20412;-76
2021/06/19 10:55:57;;;;;;;7.95;7.25;;;;;;;24.49;57.55;101525.78;6296201;28;20230;-75
2021/06/19 10:59:18;;;;;;;12.30;7.78;;;;;;;24.61;56.50;101523.44;6311918;28;20566;-75
2021/06/19 11:02:49;;;;;;;8.68;7.80;;;;;;;24.73;56.91;101512.69;6313940;28;20222;-75
2021/06/19 11:05:58;;;;;;;10.43;7.93;;;;;;;24.87;56.64;101516.50;6313508;28;20265;-75
2021/06/19 11:09:07;;;;;;;8.50;7.88;;;;;;;24.94;55.97;101520.88;6312665;28;20245;-76
2021/06/19 11:12:24;;;;;;;11.10;8.60;;;;;;;25.02;55.84;101517.44;6313133;28;20203;-75
2021/06/19 11:15:35;;;;;;;12.75;8.93;;;;;;;25.12;55.56;101511.72;6312877;28;20234;-76
2021/06/19 11:18:53;;;;;;;10.73;9.27;;;;;;;25.15;54.40;101511.13;6312953;28;20376;-75
2021/06/19 11:22:24;;;;;;;13.70;8.63;;;;;;;25.27;54.61;101503.19;6313058;28;20251;-75
2021/06/19 11:26:08;;;;;;;8.95;8.15;;;;;;;25.28;54.10;101499.25;6313952;28;20183;-77
2021/06/19 11:29:37;;;;;;;12.57;9.30;;;;;;;25.38;53.98;101490.72;6312038;28;20494;-75
2021/06/19 11:32:42;;;;;;;10.68;9.65;;;;;;;25.55;53.04;101498.66;6311776;28;20522;-75
2021/06/19 11:35:49;;;;;;;13.13;8.63;;;;;;;25.65;52.43;101498.50;6293970;28;20203;-74
2021/06/19 11:38:56;;;;;;;10.90;9.10;;;;;;;25.74;52.43;101486.34;6313077;28;20250;-75
2021/06/19 11:42:01;;;;;;;11.25;9.23;;;;;;;25.77;52.30;101488.53;6312497;28;20188;-75
2021/06/19 11:45:15;;;;;;;9.32;8.52;;;;;;;25.85;51.83;101482.25;6312370;28;20226;-75
2021/06/19 11:48:21;;;;;;;11.32;8.40;;;;;;;25.96;51.38;101489.31;6311302;28;20188;-75
2021/06/19 11:51:27;;;;;;;9.30;8.40;;;;;;;26.06;50.77;101482.75;6311817;28;20246;-75
2021/06/19 11:54:31;;;;;;;9.00;8.30;;;;;;;26.14;51.31;101479.31;6312909;28;20190;-75
2021/06/19 11:57:35;;;;;;;8.85;8.00;;;;;;;26.21;50.59;101478.91;6312396;28;20239;-75
2021/06/19 12:00:52;;;;;;;8.38;7.50;;;;;;;26.29;49.75;101475.41;6312240;28;20262;-75
2021/06/19 12:04:04;;;;;;;12.80;8.25;;;;;;;26.30;49.81;101477.06;6311808;28;20190;-76
2021/06/19 12:07:09;;;;;;;16.77;7.85;;;;;;;26.38;49.16;101473.56;6312207;28;20226;-75
2021/06/19 12:10:25;;;;;;;9.43;7.53;;;;;;;26.41;48.28;101467.34;6311119;28;20381;-75
2021/06/19 12:13:34;;;;;;;12.20;8.23;;;;;;;26.51;48.70;101464.34;6312029;28;20188;-75
2021/06/19 12:16:38;;;;;;;9.02;7.22;;;;;;;26.58;48.38;101468.41;6310773;28;20234;-75
2021/06/19 12:19:45;;;;;;;8.35;7.38;;;;;;;26.65;49.03;101462.44;6311780;28;20187;-75
2021/06/19 12:22:49;;;;;;;11.73;7.68;;;;;;;26.73;48.21;101453.31;6311897;28;20280;-75
2021/06/19 12:26:04;;;;;;;7.53;7.10;;;;;;;26.73;47.51;101456.13;6310997;28;20219;-76
2021/06/19 12:29:13;;;;;;;8.15;7.35;;;;;;;26.79;47.54;101457.69;6312212;28;20188;-76
2021/06/19 12:32:23;;;;;;;9.98;6.88;;;;;;;26.78;46.88;101456.03;6311751;28;20490;-76
2021/06/19 12:35:29;;;;;;;13.07;6.82;;;;;;;26.91;47.29;101452.41;6311552;28;20183;-75
2021/06/19 12:38:33;;;;;;;7.85;7.20;;;;;;;26.89;47.52;101451.88;6311704;28;20274;-76
2021/06/19 12:41:41;;;;;;;11.05;7.20;;;;;;;27.02;47.86;101451.03;6311922;28;20183;-76
2021/06/19 12:45:04;;;;;;;9.52;7.05;;;;;;;27.08;47.06;101437.78;6311193;28;20183;-77
2021/06/19 12:48:21;;;;;;;7.47;6.97;;;;;;;27.17;46.74;101441.50;6293874;28;20188;-76
2021/06/19 12:51:33;;;;;;;8.32;6.25;;;;;;;27.18;45.63;101437.53;6310500;28;20478;-76
2021/06/19 12:54:37;;;;;;;8.38;6.43;;;;;;;27.34;46.40;101431.31;6311810;28;20183;-76
2021/06/19 12:57:41;;;;;;;9.73;5.95;;;;;;;27.43;46.18;101427.75;6311370;28;20211;-76
2021/06/19 13:00:48;;;;;;;7.55;6.70;;;;;;;27.53;46.51;101421.94;6310304;28;20184;-76
2021/06/19 13:03:54;;;;;;;7.13;6.50;;;;;;;27.56;46.31;101421.28;6311405;28;20183;-76
2021/06/19 13:07:08;;;;;;;9.05;6.85;;;;;;;27.71;46.08;101406.91;6311569;28;20188;-77
2021/06/19 13:10:13;;;;;;;8.65;6.60;;;;;;;27.77;46.11;101400.03;6310207;28;20354;-76
2021/06/19 13:13:42;;;;;;;6.90;6.20;;;;;;;27.85;45.28;101413.28;6311496;28;20215;-76
2021/06/19 13:16:46;;;;;;;7.03;6.40;;;;;;;27.82;44.58;101391.50;6314970;28;20362;-76
2021/06/19 13:19:50;;;;;;;8.27;5.78;;;;;;;27.90;44.67;101393.53;6315955;28;20262;-76
2021/06/19 13:23:11;;;;;;;6.43;6.13;;;;;;;27.93;44.59;101392.91;6314702;28;20446;-75
2021/06/19 13:26:23;;;;;;;6.90;6.25;;;;;;;28.00;44.80;101382.03;6314537;28;20184;-75
2021/06/19 13:29:27;;;;;;;7.25;6.55;;;;;;;27.98;43.24;101384.34;6314277;28;20187;-74
2021/06/19 13:32:31;;;;;;;11.30;7.13;;;;;;;28.17;43.70;101376.56;6314436;28;20247;-75
2021/06/19 13:35:47;;;;;;;7.38;6.78;;;;;;;28.27;43.11;101370.69;6315727;28;20253;-75
2021/06/19 13:38:55;;;;;;;6.82;6.22;;;;;;;28.25;43.14;101378.59;6315590;28;20270;-76
2021/06/19 13:42:01;;;;;;;7.57;7.07;;;;;;;28.42;42.74;101369.44;6315372;28;20187;-76
2021/06/19 13:45:07;;;;;;;7.22;6.72;;;;;;;28.59;42.77;101366.69;6313931;28;20372;-76
2021/06/19 13:48:12;;;;;;;10.48;6.97;;;;;;;28.78;43.01;101370.09;6315421;28;20187;-76
2021/06/19 13:51:16;;;;;;;17.08;6.90;;;;;;;29.27;39.87;101366.09;6296727;28;20225;-75
2021/06/19 13:54:24;;;;;;;7.32;5.93;;;;;;;30.06;37.88;101357.25;6315537;28;20286;-75
2021/06/19 13:57:28;;;;;;;6.95;6.38;;;;;;;29.98;37.97;101358.09;6315717;28;20341;-77
2021/06/19 14:00:33;;;;;;;6.95;6.35;;;;;;;30.25;37.30;101352.06;6315967;28;20188;-78
2021/06/19 14:03:38;;;;;;;8.90;5.85;;;;;;;31.30;34.97;101349.19;6315419;28;20190;-76
2021/06/19 14:06:42;;;;;;;6.55;6.03;;;;;;;32.06;35.26;101344.84;6314092;28;20251;-76
2021/06/19 14:09:48;;;;;;;6.43;6.13;;;;;;;32.75;33.51;101333.50;6314905;28;20198;-76
2021/06/19 14:12:52;;;;;;;12.50;6.60;;;;;;;32.76;32.28;101334.34;6313598;28;20191;-77
2021/06/19 14:15:56;;;;;;;8.00;6.38;;;;;;;31.90;32.84;101335.34;6312967;28;20298;-76
2021/06/19 14:19:01;;;;;;;6.78;6.28;;;;;;;31.37;34.57;101338.19;6314962;28;20214;-76
2021/06/19 14:22:05;;;;;;;8.25;5.95;;;;;;;30.97;35.26;101335.81;6314677;28;20184;-76
2021/06/19 14:25:13;;;;;;;6.80;6.25;;;;;;;30.75;35.93;101338.09;6313797;28;20187;-76
2021/06/19 14:28:17;;;;;;;6.88;6.40;;;;;;;30.45;36.19;101340.09;6313251;28;20463;-76